sensor_id;sensor_type;location;lat;lon;timestamp;P1;durP1;ratioP1;P2;durP2;ratioP2
79025;SDS011;71097;44.760;37.726;2023-08-21T00:00:56;10.25;;;4.57;;
79025;SDS011;71097;44.760;37.726;2023-08-21T00:01:58;9.70;;;4.80;;
79025;SDS011;71097;44.760;37.726;2023-08-21T00:03:02;6.93;;;4.45;;
79025;SDS011;71097;44.760;37.726;2023-08-21T00:04:04;9.30;;;4.40;;
79025;SDS011;71097;44.760;37.726;2023-08-21T00:05:08;8.07;;;4.38;;
79025;SDS011;71097;44.760;37.726;2023-08-21T00:06:12;6.03;;;4.25;;
79025;SDS011;71097;44.760;37.726;2023-08-21T00:07:14;6.70;;;4.65;;
79025;SDS011;71097;44.760;37.726;2023-08-21T00:08:15;7.32;;;4.55;;
79025;SDS011;71097;44.760;37.726;2023-08-21T00:09:17;7.82;;;4.72;;
79025;SDS011;71097;44.760;37.726;2023-08-21T00:10:19;7.90;;;4.63;;
79025;SDS011;71097;44.760;37.726;2023-08-21T00:11:20;6.55;;;4.28;;
79025;SDS011;71097;44.760;37.726;2023-08-21T00:12:23;9.20;;;4.75;;
79025;SDS011;71097;44.760;37.726;2023-08-21T00:13:25;7.88;;;4.43;;
79025;SDS011;71097;44.760;37.726;2023-08-21T00:14:27;8.60;;;4.30;;
79025;SDS011;71097;44.760;37.726;2023-08-21T00:15:28;8.52;;;4.47;;
79025;SDS011;71097;44.760;37.726;2023-08-21T00:16:32;7.82;;;4.22;;
79025;SDS011;71097;44.760;37.726;2023-08-21T00:17:35;7.05;;;4.68;;
79025;SDS011;71097;44.760;37.726;2023-08-21T00:18:39;6.50;;;4.10;;
79025;SDS011;71097;44.760;37.726;2023-08-21T00:19:41;9.32;;;4.88;;
79025;SDS011;71097;44.760;37.726;2023-08-21T00:20:43;9.55;;;4.65;;
79025;SDS011;71097;44.760;37.726;2023-08-21T00:21:45;6.75;;;4.40;;
79025;SDS011;71097;44.760;37.726;2023-08-21T00:22:46;7.63;;;4.10;;
79025;SDS011;71097;44.760;37.726;2023-08-21T00:23:48;6.60;;;4.47;;
79025;SDS011;71097;44.760;37.726;2023-08-21T00:24:49;7.13;;;4.40;;
79025;SDS011;71097;44.760;37.726;2023-08-21T00:25:51;5.97;;;4.45;;
79025;SDS011;71097;44.760;37.726;2023-08-21T00:26:53;6.07;;;4.53;;
79025;SDS011;71097;44.760;37.726;2023-08-21T00:27:54;6.20;;;4.35;;
79025;SDS011;71097;44.760;37.726;2023-08-21T00:28:56;8.73;;;4.90;;
79025;SDS011;71097;44.760;37.726;2023-08-21T00:29:59;8.55;;;5.00;;
79025;SDS011;71097;44.760;37.726;2023-08-21T00:31:02;11.15;;;4.70;;
79025;SDS011;71097;44.760;37.726;2023-08-21T00:32:04;7.28;;;4.50;;
79025;SDS011;71097;44.760;37.726;2023-08-21T00:33:07;6.43;;;4.55;;
79025;SDS011;71097;44.760;37.726;2023-08-21T00:34:12;5.85;;;4.63;;
79025;SDS011;71097;44.760;37.726;2023-08-21T00:35:14;9.63;;;4.40;;
79025;SDS011;71097;44.760;37.726;2023-08-21T00:36:15;7.40;;;4.38;;
79025;SDS011;71097;44.760;37.726;2023-08-21T00:37:17;7.00;;;5.25;;
79025;SDS011;71097;44.760;37.726;2023-08-21T00:38:19;7.57;;;4.70;;
79025;SDS011;71097;44.760;37.726;2023-08-21T00:39:20;8.90;;;4.35;;
79025;SDS011;71097;44.760;37.726;2023-08-21T00:40:25;10.52;;;5.10;;
79025;SDS011;71097;44.760;37.726;2023-08-21T00:41:26;7.13;;;4.78;;
79025;SDS011;71097;44.760;37.726;2023-08-21T00:42:29;6.78;;;4.88;;
79025;SDS011;71097;44.760;37.726;2023-08-21T00:43:30;8.10;;;4.47;;
79025;SDS011;71097;44.760;37.726;2023-08-21T00:44:32;9.52;;;4.43;;
79025;SDS011;71097;44.760;37.726;2023-08-21T00:45:34;7.18;;;4.63;;
79025;SDS011;71097;44.760;37.726;2023-08-21T00:46:35;6.25;;;4.07;;
79025;SDS011;71097;44.760;37.726;2023-08-21T00:47:37;7.03;;;3.97;;
79025;SDS011;71097;44.760;37.726;2023-08-21T00:48:39;7.78;;;3.85;;
79025;SDS011;71097;44.760;37.726;2023-08-21T00:49:41;7.13;;;3.80;;
79025;SDS011;71097;44.760;37.726;2023-08-21T00:50:44;6.15;;;3.97;;
79025;SDS011;71097;44.760;37.726;2023-08-21T00:51:47;9.95;;;4.80;;
79025;SDS011;71097;44.760;37.726;2023-08-21T00:52:50;6.88;;;4.75;;
79025;SDS011;71097;44.760;37.726;2023-08-21T00:53:52;8.27;;;5.13;;
79025;SDS011;71097;44.760;37.726;2023-08-21T00:54:56;8.40;;;5.07;;
79025;SDS011;71097;44.760;37.726;2023-08-21T00:55:59;9.73;;;4.68;;
79025;SDS011;71097;44.760;37.726;2023-08-21T00:57:01;10.30;;;4.97;;
79025;SDS011;71097;44.760;37.726;2023-08-21T00:58:05;9.07;;;4.72;;
79025;SDS011;71097;44.760;37.726;2023-08-21T00:59:12;8.80;;;4.55;;
79025;SDS011;71097;44.760;37.726;2023-08-21T01:00:14;7.07;;;4.55;;
79025;SDS011;71097;44.760;37.726;2023-08-21T01:01:20;5.30;;;4.47;;
79025;SDS011;71097;44.760;37.726;2023-08-21T01:02:31;6.80;;;4.50;;
79025;SDS011;71097;44.760;37.726;2023-08-21T01:03:33;10.20;;;5.05;;
79025;SDS011;71097;44.760;37.726;2023-08-21T01:04:35;9.70;;;4.30;;
79025;SDS011;71097;44.760;37.726;2023-08-21T01:05:37;7.80;;;4.40;;
79025;SDS011;71097;44.760;37.726;2023-08-21T01:06:39;7.60;;;4.47;;
79025;SDS011;71097;44.760;37.726;2023-08-21T01:07:45;7.68;;;4.70;;
79025;SDS011;71097;44.760;37.726;2023-08-21T01:09:00;6.93;;;4.72;;
79025;SDS011;71097;44.760;37.726;2023-08-21T01:10:10;6.95;;;4.60;;
79025;SDS011;71097;44.760;37.726;2023-08-21T01:13:01;7.78;;;5.13;;
79025;SDS011;71097;44.760;37.726;2023-08-21T01:14:23;7.38;;;4.43;;
79025;SDS011;71097;44.760;37.726;2023-08-21T01:15:38;7.53;;;4.78;;
79025;SDS011;71097;44.760;37.726;2023-08-21T01:16:40;9.48;;;4.90;;
79025;SDS011;71097;44.760;37.726;2023-08-21T01:17:45;10.32;;;5.07;;
79025;SDS011;71097;44.760;37.726;2023-08-21T01:18:49;6.57;;;4.82;;
79025;SDS011;71097;44.760;37.726;2023-08-21T01:19:52;7.20;;;4.55;;
79025;SDS011;71097;44.760;37.726;2023-08-21T01:20:54;8.70;;;4.78;;
79025;SDS011;71097;44.760;37.726;2023-08-21T01:21:59;8.80;;;4.47;;
79025;SDS011;71097;44.760;37.726;2023-08-21T01:23:05;8.57;;;4.03;;
79025;SDS011;71097;44.760;37.726;2023-08-21T01:24:08;7.13;;;4.47;;
79025;SDS011;71097;44.760;37.726;2023-08-21T01:25:10;12.60;;;4.95;;
79025;SDS011;71097;44.760;37.726;2023-08-21T01:26:11;8.10;;;4.60;;
79025;SDS011;71097;44.760;37.726;2023-08-21T01:27:13;7.47;;;4.30;;
79025;SDS011;71097;44.760;37.726;2023-08-21T01:28:17;7.90;;;4.65;;
79025;SDS011;71097;44.760;37.726;2023-08-21T01:29:19;8.48;;;4.55;;
79025;SDS011;71097;44.760;37.726;2023-08-21T01:30:21;8.13;;;4.60;;
79025;SDS011;71097;44.760;37.726;2023-08-21T01:31:27;12.52;;;5.13;;
79025;SDS011;71097;44.760;37.726;2023-08-21T01:32:54;6.38;;;4.35;;
79025;SDS011;71097;44.760;37.726;2023-08-21T01:34:08;7.50;;;3.97;;
79025;SDS011;71097;44.760;37.726;2023-08-21T01:35:14;9.40;;;4.70;;
79025;SDS011;71097;44.760;37.726;2023-08-21T01:36:16;9.65;;;4.15;;
79025;SDS011;71097;44.760;37.726;2023-08-21T01:37:18;8.23;;;4.50;;
79025;SDS011;71097;44.760;37.726;2023-08-21T01:38:24;6.30;;;4.20;;
79025;SDS011;71097;44.760;37.726;2023-08-21T01:39:26;8.18;;;4.93;;
79025;SDS011;71097;44.760;37.726;2023-08-21T01:40:30;10.60;;;4.68;;
79025;SDS011;71097;44.760;37.726;2023-08-21T01:41:34;9.48;;;4.65;;
79025;SDS011;71097;44.760;37.726;2023-08-21T01:42:36;7.63;;;4.57;;
79025;SDS011;71097;44.760;37.726;2023-08-21T01:43:38;7.05;;;4.40;;
79025;SDS011;71097;44.760;37.726;2023-08-21T01:44:39;7.50;;;4.85;;
79025;SDS011;71097;44.760;37.726;2023-08-21T01:45:41;5.60;;;3.83;;
79025;SDS011;71097;44.760;37.726;2023-08-21T01:46:43;5.90;;;4.15;;
79025;SDS011;71097;44.760;37.726;2023-08-21T01:47:47;7.38;;;4.75;;
79025;SDS011;71097;44.760;37.726;2023-08-21T01:48:49;8.50;;;4.15;;
79025;SDS011;71097;44.760;37.726;2023-08-21T01:49:54;7.40;;;4.53;;
79025;SDS011;71097;44.760;37.726;2023-08-21T01:50:56;8.50;;;5.22;;
79025;SDS011;71097;44.760;37.726;2023-08-21T01:51:58;6.80;;;4.13;;
79025;SDS011;71097;44.760;37.726;2023-08-21T01:53:00;7.70;;;4.97;;
79025;SDS011;71097;44.760;37.726;2023-08-21T01:54:04;9.93;;;4.07;;
79025;SDS011;71097;44.760;37.726;2023-08-21T01:55:06;7.43;;;4.22;;
79025;SDS011;71097;44.760;37.726;2023-08-21T01:56:11;7.65;;;4.25;;
79025;SDS011;71097;44.760;37.726;2023-08-21T01:57:16;8.05;;;4.07;;
79025;SDS011;71097;44.760;37.726;2023-08-21T01:58:18;8.25;;;4.20;;
79025;SDS011;71097;44.760;37.726;2023-08-21T01:59:20;7.63;;;4.63;;
79025;SDS011;71097;44.760;37.726;2023-08-21T02:00:25;7.32;;;5.25;;
79025;SDS011;71097;44.760;37.726;2023-08-21T02:01:26;9.45;;;4.43;;
79025;SDS011;71097;44.760;37.726;2023-08-21T02:02:28;7.60;;;5.65;;
79025;SDS011;71097;44.760;37.726;2023-08-21T02:03:30;8.18;;;5.35;;
79025;SDS011;71097;44.760;37.726;2023-08-21T02:04:34;8.98;;;5.05;;
79025;SDS011;71097;44.760;37.726;2023-08-21T02:05:39;6.30;;;4.57;;
79025;SDS011;71097;44.760;37.726;2023-08-21T02:06:41;7.45;;;4.53;;
79025;SDS011;71097;44.760;37.726;2023-08-21T02:07:45;8.80;;;5.25;;
79025;SDS011;71097;44.760;37.726;2023-08-21T02:08:46;9.82;;;5.45;;
79025;SDS011;71097;44.760;37.726;2023-08-21T02:09:48;11.05;;;5.88;;
79025;SDS011;71097;44.760;37.726;2023-08-21T02:10:50;7.40;;;5.20;;
79025;SDS011;71097;44.760;37.726;2023-08-21T02:11:52;7.32;;;5.82;;
79025;SDS011;71097;44.760;37.726;2023-08-21T02:12:53;7.80;;;5.07;;
79025;SDS011;71097;44.760;37.726;2023-08-21T02:13:55;9.60;;;5.32;;
79025;SDS011;71097;44.760;37.726;2023-08-21T02:14:57;10.23;;;5.10;;
79025;SDS011;71097;44.760;37.726;2023-08-21T02:15:58;10.20;;;5.30;;
79025;SDS011;71097;44.760;37.726;2023-08-21T02:17:01;9.45;;;4.68;;
79025;SDS011;71097;44.760;37.726;2023-08-21T02:18:03;11.63;;;4.97;;
79025;SDS011;71097;44.760;37.726;2023-08-21T02:19:05;7.60;;;4.43;;
79025;SDS011;71097;44.760;37.726;2023-08-21T02:20:06;8.15;;;4.53;;
79025;SDS011;71097;44.760;37.726;2023-08-21T02:21:09;9.00;;;4.43;;
79025;SDS011;71097;44.760;37.726;2023-08-21T02:22:11;9.70;;;4.32;;
79025;SDS011;71097;44.760;37.726;2023-08-21T02:23:16;9.50;;;5.00;;
79025;SDS011;71097;44.760;37.726;2023-08-21T02:24:17;9.00;;;5.35;;
79025;SDS011;71097;44.760;37.726;2023-08-21T02:25:19;10.02;;;5.20;;
79025;SDS011;71097;44.760;37.726;2023-08-21T02:26:22;7.63;;;5.30;;
79025;SDS011;71097;44.760;37.726;2023-08-21T02:27:24;7.95;;;4.75;;
79025;SDS011;71097;44.760;37.726;2023-08-21T02:28:26;8.45;;;4.80;;
79025;SDS011;71097;44.760;37.726;2023-08-21T02:29:28;10.98;;;5.20;;
79025;SDS011;71097;44.760;37.726;2023-08-21T02:30:29;9.45;;;4.60;;
79025;SDS011;71097;44.760;37.726;2023-08-21T02:31:32;11.10;;;5.07;;
79025;SDS011;71097;44.760;37.726;2023-08-21T02:32:34;8.68;;;4.45;;
79025;SDS011;71097;44.760;37.726;2023-08-21T02:33:35;10.20;;;5.07;;
79025;SDS011;71097;44.760;37.726;2023-08-21T02:34:37;7.43;;;4.13;;
79025;SDS011;71097;44.760;37.726;2023-08-21T02:35:40;9.07;;;4.63;;
79025;SDS011;71097;44.760;37.726;2023-08-21T02:36:42;8.45;;;4.03;;
79025;SDS011;71097;44.760;37.726;2023-08-21T02:37:43;6.70;;;4.43;;
79025;SDS011;71097;44.760;37.726;2023-08-21T02:38:45;9.35;;;5.63;;
79025;SDS011;71097;44.760;37.726;2023-08-21T02:39:47;8.10;;;4.10;;
79025;SDS011;71097;44.760;37.726;2023-08-21T02:40:48;8.15;;;4.35;;
79025;SDS011;71097;44.760;37.726;2023-08-21T02:41:50;7.30;;;4.45;;
79025;SDS011;71097;44.760;37.726;2023-08-21T02:42:52;8.98;;;4.65;;
79025;SDS011;71097;44.760;37.726;2023-08-21T02:43:53;9.85;;;4.57;;
79025;SDS011;71097;44.760;37.726;2023-08-21T02:44:55;9.50;;;4.43;;
79025;SDS011;71097;44.760;37.726;2023-08-21T02:47:00;8.15;;;4.38;;
79025;SDS011;71097;44.760;37.726;2023-08-21T02:48:02;7.70;;;3.95;;
79025;SDS011;71097;44.760;37.726;2023-08-21T02:49:03;8.00;;;3.92;;
79025;SDS011;71097;44.760;37.726;2023-08-21T02:50:06;8.40;;;4.05;;
79025;SDS011;71097;44.760;37.726;2023-08-21T02:51:08;8.10;;;3.95;;
79025;SDS011;71097;44.760;37.726;2023-08-21T02:52:10;6.45;;;3.17;;
79025;SDS011;71097;44.760;37.726;2023-08-21T02:53:11;7.47;;;3.70;;
79025;SDS011;71097;44.760;37.726;2023-08-21T02:54:13;5.80;;;3.80;;
79025;SDS011;71097;44.760;37.726;2023-08-21T02:55:14;8.05;;;3.58;;
79025;SDS011;71097;44.760;37.726;2023-08-21T02:56:16;4.90;;;3.35;;
79025;SDS011;71097;44.760;37.726;2023-08-21T02:57:18;5.55;;;3.45;;
79025;SDS011;71097;44.760;37.726;2023-08-21T02:58:23;6.00;;;3.78;;
79025;SDS011;71097;44.760;37.726;2023-08-21T02:59:25;9.73;;;4.22;;
79025;SDS011;71097;44.760;37.726;2023-08-21T03:00:27;6.15;;;3.97;;
79025;SDS011;71097;44.760;37.726;2023-08-21T03:01:28;6.25;;;3.58;;
79025;SDS011;71097;44.760;37.726;2023-08-21T03:02:31;4.75;;;3.20;;
79025;SDS011;71097;44.760;37.726;2023-08-21T03:03:33;7.60;;;3.67;;
79025;SDS011;71097;44.760;37.726;2023-08-21T03:04:36;8.23;;;3.90;;
79025;SDS011;71097;44.760;37.726;2023-08-21T03:05:40;9.18;;;4.00;;
79025;SDS011;71097;44.760;37.726;2023-08-21T03:06:42;5.97;;;3.85;;
79025;SDS011;71097;44.760;37.726;2023-08-21T03:07:44;6.95;;;3.53;;
79025;SDS011;71097;44.760;37.726;2023-08-21T03:08:46;9.68;;;4.15;;
79025;SDS011;71097;44.760;37.726;2023-08-21T03:09:48;8.13;;;4.25;;
79025;SDS011;71097;44.760;37.726;2023-08-21T03:10:51;7.57;;;3.85;;
79025;SDS011;71097;44.760;37.726;2023-08-21T03:11:53;6.40;;;3.78;;
79025;SDS011;71097;44.760;37.726;2023-08-21T03:12:54;6.72;;;3.92;;
79025;SDS011;71097;44.760;37.726;2023-08-21T03:13:56;7.07;;;4.00;;
79025;SDS011;71097;44.760;37.726;2023-08-21T03:14:58;7.72;;;3.70;;
79025;SDS011;71097;44.760;37.726;2023-08-21T03:16:00;7.18;;;3.92;;
79025;SDS011;71097;44.760;37.726;2023-08-21T03:17:02;6.97;;;3.50;;
79025;SDS011;71097;44.760;37.726;2023-08-21T03:18:04;7.38;;;3.90;;
79025;SDS011;71097;44.760;37.726;2023-08-21T03:19:07;10.88;;;4.40;;
79025;SDS011;71097;44.760;37.726;2023-08-21T03:20:09;7.70;;;4.32;;
79025;SDS011;71097;44.760;37.726;2023-08-21T03:21:11;10.38;;;3.88;;
79025;SDS011;71097;44.760;37.726;2023-08-21T03:22:13;11.52;;;4.03;;
79025;SDS011;71097;44.760;37.726;2023-08-21T03:23:15;7.40;;;3.13;;
79025;SDS011;71097;44.760;37.726;2023-08-21T03:24:17;6.28;;;3.78;;
79025;SDS011;71097;44.760;37.726;2023-08-21T03:25:19;6.80;;;3.95;;
79025;SDS011;71097;44.760;37.726;2023-08-21T03:26:22;6.18;;;3.55;;
79025;SDS011;71097;44.760;37.726;2023-08-21T03:27:24;8.00;;;4.15;;
79025;SDS011;71097;44.760;37.726;2023-08-21T03:28:26;6.13;;;3.90;;
79025;SDS011;71097;44.760;37.726;2023-08-21T03:29:29;8.13;;;4.45;;
79025;SDS011;71097;44.760;37.726;2023-08-21T03:30:33;8.68;;;3.78;;
79025;SDS011;71097;44.760;37.726;2023-08-21T03:31:38;6.97;;;4.20;;
79025;SDS011;71097;44.760;37.726;2023-08-21T03:32:41;7.30;;;4.32;;
79025;SDS011;71097;44.760;37.726;2023-08-21T03:33:42;6.47;;;4.05;;
79025;SDS011;71097;44.760;37.726;2023-08-21T03:34:45;6.78;;;4.25;;
79025;SDS011;71097;44.760;37.726;2023-08-21T03:35:47;6.70;;;3.83;;
79025;SDS011;71097;44.760;37.726;2023-08-21T03:36:55;6.20;;;4.38;;
79025;SDS011;71097;44.760;37.726;2023-08-21T03:37:58;6.55;;;3.65;;
79025;SDS011;71097;44.760;37.726;2023-08-21T03:39:03;5.95;;;3.65;;
79025;SDS011;71097;44.760;37.726;2023-08-21T03:40:10;7.50;;;3.78;;
79025;SDS011;71097;44.760;37.726;2023-08-21T03:41:12;10.43;;;3.58;;
79025;SDS011;71097;44.760;37.726;2023-08-21T03:42:17;6.85;;;3.70;;
79025;SDS011;71097;44.760;37.726;2023-08-21T03:43:20;7.57;;;3.53;;
79025;SDS011;71097;44.760;37.726;2023-08-21T03:44:21;9.65;;;3.97;;
79025;SDS011;71097;44.760;37.726;2023-08-21T03:45:23;6.60;;;3.45;;
79025;SDS011;71097;44.760;37.726;2023-08-21T03:46:28;10.88;;;3.97;;
79025;SDS011;71097;44.760;37.726;2023-08-21T03:47:30;6.47;;;3.70;;
79025;SDS011;71097;44.760;37.726;2023-08-21T03:48:37;6.43;;;3.70;;
79025;SDS011;71097;44.760;37.726;2023-08-21T03:49:40;6.65;;;3.80;;
79025;SDS011;71097;44.760;37.726;2023-08-21T03:50:42;9.77;;;4.63;;
79025;SDS011;71097;44.760;37.726;2023-08-21T03:51:44;6.68;;;3.50;;
79025;SDS011;71097;44.760;37.726;2023-08-21T03:52:46;6.13;;;3.20;;
79025;SDS011;71097;44.760;37.726;2023-08-21T03:53:48;6.38;;;3.97;;
79025;SDS011;71097;44.760;37.726;2023-08-21T03:54:55;6.82;;;4.03;;
79025;SDS011;71097;44.760;37.726;2023-08-21T03:55:58;9.48;;;4.22;;
79025;SDS011;71097;44.760;37.726;2023-08-21T03:57:03;6.63;;;4.05;;
79025;SDS011;71097;44.760;37.726;2023-08-21T03:58:07;7.85;;;3.80;;
79025;SDS011;71097;44.760;37.726;2023-08-21T03:59:22;11.18;;;3.95;;
79025;SDS011;71097;44.760;37.726;2023-08-21T04:00:33;6.97;;;4.00;;
79025;SDS011;71097;44.760;37.726;2023-08-21T04:01:45;8.80;;;3.92;;
79025;SDS011;71097;44.760;37.726;2023-08-21T04:02:59;6.32;;;3.92;;
79025;SDS011;71097;44.760;37.726;2023-08-21T04:04:27;7.28;;;3.60;;
79025;SDS011;71097;44.760;37.726;2023-08-21T04:05:30;8.30;;;4.18;;
79025;SDS011;71097;44.760;37.726;2023-08-21T04:06:40;8.48;;;3.88;;
79025;SDS011;71097;44.760;37.726;2023-08-21T04:07:44;6.05;;;3.92;;
79025;SDS011;71097;44.760;37.726;2023-08-21T04:08:46;7.00;;;4.15;;
79025;SDS011;71097;44.760;37.726;2023-08-21T04:09:48;6.45;;;3.90;;
79025;SDS011;71097;44.760;37.726;2023-08-21T04:10:49;7.03;;;4.20;;
79025;SDS011;71097;44.760;37.726;2023-08-21T04:11:56;10.48;;;4.28;;
79025;SDS011;71097;44.760;37.726;2023-08-21T04:13:00;6.72;;;3.72;;
79025;SDS011;71097;44.760;37.726;2023-08-21T04:14:02;8.35;;;4.30;;
79025;SDS011;71097;44.760;37.726;2023-08-21T04:15:09;7.60;;;4.40;;
79025;SDS011;71097;44.760;37.726;2023-08-21T04:16:13;6.22;;;4.13;;
79025;SDS011;71097;44.760;37.726;2023-08-21T04:17:22;6.78;;;4.60;;
79025;SDS011;71097;44.760;37.726;2023-08-21T04:18:28;9.98;;;5.15;;
79025;SDS011;71097;44.760;37.726;2023-08-21T04:19:30;13.60;;;6.13;;
79025;SDS011;71097;44.760;37.726;2023-08-21T04:20:37;11.48;;;5.82;;
79025;SDS011;71097;44.760;37.726;2023-08-21T04:21:42;9.32;;;5.75;;
79025;SDS011;71097;44.760;37.726;2023-08-21T04:22:44;10.77;;;5.18;;
79025;SDS011;71097;44.760;37.726;2023-08-21T04:23:56;8.35;;;4.93;;
79025;SDS011;71097;44.760;37.726;2023-08-21T04:24:58;11.35;;;5.32;;
79025;SDS011;71097;44.760;37.726;2023-08-21T04:26:03;12.25;;;5.50;;
79025;SDS011;71097;44.760;37.726;2023-08-21T04:27:11;8.75;;;5.30;;
79025;SDS011;71097;44.760;37.726;2023-08-21T04:28:24;9.90;;;4.95;;
79025;SDS011;71097;44.760;37.726;2023-08-21T04:29:26;9.38;;;4.65;;
79025;SDS011;71097;44.760;37.726;2023-08-21T04:30:47;7.00;;;4.53;;
79025;SDS011;71097;44.760;37.726;2023-08-21T04:32:05;8.38;;;5.38;;
79025;SDS011;71097;44.760;37.726;2023-08-21T04:33:28;8.65;;;4.95;;
79025;SDS011;71097;44.760;37.726;2023-08-21T04:34:35;8.45;;;4.40;;
79025;SDS011;71097;44.760;37.726;2023-08-21T04:35:43;5.57;;;4.18;;
79025;SDS011;71097;44.760;37.726;2023-08-21T04:37:09;7.20;;;4.20;;
79025;SDS011;71097;44.760;37.726;2023-08-21T04:38:12;8.18;;;4.05;;
79025;SDS011;71097;44.760;37.726;2023-08-21T04:39:17;5.93;;;3.97;;
79025;SDS011;71097;44.760;37.726;2023-08-21T04:40:30;7.82;;;4.28;;
79025;SDS011;71097;44.760;37.726;2023-08-21T04:41:32;6.43;;;4.38;;
79025;SDS011;71097;44.760;37.726;2023-08-21T04:42:36;5.38;;;3.75;;
79025;SDS011;71097;44.760;37.726;2023-08-21T04:43:40;7.28;;;4.15;;
79025;SDS011;71097;44.760;37.726;2023-08-21T04:44:45;7.45;;;3.72;;
79025;SDS011;71097;44.760;37.726;2023-08-21T04:45:53;6.88;;;4.03;;
79025;SDS011;71097;44.760;37.726;2023-08-21T04:46:57;7.13;;;4.00;;
79025;SDS011;71097;44.760;37.726;2023-08-21T04:48:32;10.50;;;4.45;;
79025;SDS011;71097;44.760;37.726;2023-08-21T04:49:36;7.03;;;4.30;;
79025;SDS011;71097;44.760;37.726;2023-08-21T04:50:37;7.43;;;5.05;;
79025;SDS011;71097;44.760;37.726;2023-08-21T04:51:39;6.47;;;4.30;;
79025;SDS011;71097;44.760;37.726;2023-08-21T04:52:41;7.32;;;4.57;;
79025;SDS011;71097;44.760;37.726;2023-08-21T04:53:43;7.28;;;3.92;;
79025;SDS011;71097;44.760;37.726;2023-08-21T04:54:55;5.07;;;4.03;;
79025;SDS011;71097;44.760;37.726;2023-08-21T04:55:59;6.82;;;4.53;;
79025;SDS011;71097;44.760;37.726;2023-08-21T04:57:06;7.97;;;4.72;;
79025;SDS011;71097;44.760;37.726;2023-08-21T04:58:28;6.80;;;4.63;;
79025;SDS011;71097;44.760;37.726;2023-08-21T04:59:33;7.82;;;4.60;;
79025;SDS011;71097;44.760;37.726;2023-08-21T05:00:46;6.40;;;3.88;;
79025;SDS011;71097;44.760;37.726;2023-08-21T05:01:54;6.88;;;4.05;;
79025;SDS011;71097;44.760;37.726;2023-08-21T05:03:01;6.72;;;4.93;;
79025;SDS011;71097;44.760;37.726;2023-08-21T05:04:03;6.05;;;4.03;;
79025;SDS011;71097;44.760;37.726;2023-08-21T05:05:07;5.82;;;4.40;;
79025;SDS011;71097;44.760;37.726;2023-08-21T05:06:12;5.57;;;4.20;;
79025;SDS011;71097;44.760;37.726;2023-08-21T05:07:14;5.35;;;4.18;;
79025;SDS011;71097;44.760;37.726;2023-08-21T05:08:21;6.22;;;4.30;;
79025;SDS011;71097;44.760;37.726;2023-08-21T05:09:26;5.72;;;3.95;;
79025;SDS011;71097;44.760;37.726;2023-08-21T05:10:28;7.45;;;4.32;;
79025;SDS011;71097;44.760;37.726;2023-08-21T05:11:30;5.35;;;4.18;;
79025;SDS011;71097;44.760;37.726;2023-08-21T05:12:37;8.15;;;4.57;;
79025;SDS011;71097;44.760;37.726;2023-08-21T05:13:39;8.07;;;4.00;;
79025;SDS011;71097;44.760;37.726;2023-08-21T05:14:44;6.55;;;4.72;;
79025;SDS011;71097;44.760;37.726;2023-08-21T05:15:51;8.00;;;4.72;;
79025;SDS011;71097;44.760;37.726;2023-08-21T05:16:57;9.13;;;4.38;;
79025;SDS011;71097;44.760;37.726;2023-08-21T05:17:59;6.65;;;4.40;;
79025;SDS011;71097;44.760;37.726;2023-08-21T05:19:02;5.43;;;4.20;;
79025;SDS011;71097;44.760;37.726;2023-08-21T05:20:12;9.18;;;5.97;;
79025;SDS011;71097;44.760;37.726;2023-08-21T05:21:15;7.43;;;4.60;;
79025;SDS011;71097;44.760;37.726;2023-08-21T05:22:18;6.55;;;4.30;;
79025;SDS011;71097;44.760;37.726;2023-08-21T05:23:20;7.13;;;4.22;;
79025;SDS011;71097;44.760;37.726;2023-08-21T05:24:25;8.98;;;3.90;;
79025;SDS011;71097;44.760;37.726;2023-08-21T05:25:40;8.57;;;4.75;;
79025;SDS011;71097;44.760;37.726;2023-08-21T05:26:48;7.10;;;3.65;;
79025;SDS011;71097;44.760;37.726;2023-08-21T05:27:53;6.18;;;4.10;;
79025;SDS011;71097;44.760;37.726;2023-08-21T05:28:56;6.78;;;4.03;;
79025;SDS011;71097;44.760;37.726;2023-08-21T05:30:03;6.10;;;4.45;;
79025;SDS011;71097;44.760;37.726;2023-08-21T05:31:06;7.35;;;4.43;;
79025;SDS011;71097;44.760;37.726;2023-08-21T05:32:30;9.07;;;3.38;;
79025;SDS011;71097;44.760;37.726;2023-08-21T05:33:37;5.72;;;3.92;;
79025;SDS011;71097;44.760;37.726;2023-08-21T05:34:41;7.22;;;4.53;;
79025;SDS011;71097;44.760;37.726;2023-08-21T05:35:44;7.68;;;4.40;;
79025;SDS011;71097;44.760;37.726;2023-08-21T05:36:45;6.30;;;4.30;;
79025;SDS011;71097;44.760;37.726;2023-08-21T05:38:00;8.35;;;4.45;;
79025;SDS011;71097;44.760;37.726;2023-08-21T05:39:14;7.00;;;3.58;;
79025;SDS011;71097;44.760;37.726;2023-08-21T05:40:16;5.18;;;3.90;;
79025;SDS011;71097;44.760;37.726;2023-08-21T05:41:23;8.40;;;3.83;;
79025;SDS011;71097;44.760;37.726;2023-08-21T05:42:29;7.40;;;3.38;;
79025;SDS011;71097;44.760;37.726;2023-08-21T05:43:31;5.57;;;3.97;;
79025;SDS011;71097;44.760;37.726;2023-08-21T05:44:43;7.00;;;4.10;;
79025;SDS011;71097;44.760;37.726;2023-08-21T05:45:45;6.15;;;3.83;;
79025;SDS011;71097;44.760;37.726;2023-08-21T05:46:48;7.68;;;4.15;;
79025;SDS011;71097;44.760;37.726;2023-08-21T05:47:50;5.70;;;3.72;;
79025;SDS011;71097;44.760;37.726;2023-08-21T05:48:52;6.88;;;3.95;;
79025;SDS011;71097;44.760;37.726;2023-08-21T05:49:59;7.47;;;3.75;;
79025;SDS011;71097;44.760;37.726;2023-08-21T05:51:01;6.30;;;3.70;;
79025;SDS011;71097;44.760;37.726;2023-08-21T05:52:04;5.65;;;4.05;;
79025;SDS011;71097;44.760;37.726;2023-08-21T05:53:06;6.28;;;3.80;;
79025;SDS011;71097;44.760;37.726;2023-08-21T05:54:10;5.35;;;3.95;;
79025;SDS011;71097;44.760;37.726;2023-08-21T05:55:19;6.22;;;3.70;;
79025;SDS011;71097;44.760;37.726;2023-08-21T05:56:21;8.38;;;3.90;;
79025;SDS011;71097;44.760;37.726;2023-08-21T05:57:36;6.07;;;4.25;;
79025;SDS011;71097;44.760;37.726;2023-08-21T05:58:50;7.63;;;3.70;;
79025;SDS011;71097;44.760;37.726;2023-08-21T05:59:58;9.48;;;4.18;;
79025;SDS011;71097;44.760;37.726;2023-08-21T06:01:01;5.07;;;3.70;;
79025;SDS011;71097;44.760;37.726;2023-08-21T06:02:25;5.43;;;3.88;;
79025;SDS011;71097;44.760;37.726;2023-08-21T06:03:27;6.68;;;3.42;;
79025;SDS011;71097;44.760;37.726;2023-08-21T06:04:51;5.47;;;3.72;;
79025;SDS011;71097;44.760;37.726;2023-08-21T06:05:56;6.15;;;3.90;;
79025;SDS011;71097;44.760;37.726;2023-08-21T06:07:00;6.22;;;3.63;;
79025;SDS011;71097;44.760;37.726;2023-08-21T06:08:03;7.82;;;4.00;;
79025;SDS011;71097;44.760;37.726;2023-08-21T06:09:05;5.35;;;3.85;;
79025;SDS011;71097;44.760;37.726;2023-08-21T06:10:11;6.45;;;3.92;;
79025;SDS011;71097;44.760;37.726;2023-08-21T06:11:13;5.65;;;4.60;;
79025;SDS011;71097;44.760;37.726;2023-08-21T06:12:18;7.32;;;4.00;;
79025;SDS011;71097;44.760;37.726;2023-08-21T06:13:20;5.72;;;3.58;;
79025;SDS011;71097;44.760;37.726;2023-08-21T06:14:25;5.50;;;3.58;;
79025;SDS011;71097;44.760;37.726;2023-08-21T06:15:35;5.28;;;3.78;;
79025;SDS011;71097;44.760;37.726;2023-08-21T06:16:42;9.15;;;4.72;;
79025;SDS011;71097;44.760;37.726;2023-08-21T06:17:46;7.05;;;3.85;;
79025;SDS011;71097;44.760;37.726;2023-08-21T06:18:48;6.32;;;3.83;;
79025;SDS011;71097;44.760;37.726;2023-08-21T06:19:50;4.65;;;3.35;;
79025;SDS011;71097;44.760;37.726;2023-08-21T06:20:52;9.32;;;4.10;;
79025;SDS011;71097;44.760;37.726;2023-08-21T06:21:56;5.38;;;3.33;;
79025;SDS011;71097;44.760;37.726;2023-08-21T06:22:58;5.55;;;3.22;;
79025;SDS011;71097;44.760;37.726;2023-08-21T06:24:06;5.82;;;4.13;;
79025;SDS011;71097;44.760;37.726;2023-08-21T06:25:11;10.48;;;4.13;;